Aérodrome :
LOGIN :

S'inscrire | Disclaimer

   EN    FR    IT 

 










Légende :    VFR   VFR Marginal   IFR   IFR Intensif   IFR Très Intensif
Visi : 
Plafond : 
>= 8 km
>= 3000ft
5 à 8 km
1000 à 3000 ft
1500m à 5 km
500 à 1000 ft
800 à 1500m
200 à 500 ft
< 800m
< 200 ft
Symboles :   Orages  Brouillard  Fortes neiges  Fortes précipitations  Vent > 20 kt
SIGMETs :   Divers  Orages  Givrage  Turbulence  Onde Orograph.  Cendres Volcan.






- Altitude de l'aérodrome : 844 ft
- Code IATA : OSR


LKMT - Ostrava-Mosnov

DERNIER METAR :
  • 200430Z 01007KT 9999 FEW009 BKN035 09/09 Q1016 NOSIG

METARs EXPIRÉS :
  • 200400Z 02005KT 9999 FEW009 09/09 Q1016 NOSIG
  • 200330Z 02006KT 9999 FEW008 09/09 Q1016 NOSIG
  • 200300Z 02009KT 9999 FEW008 09/09 Q1016 NOSIG
  • 200230Z 03009KT CAVOK 09/09 Q1016 NOSIG
  • 200200Z 03008KT 9999 FEW041 10/09 Q1016 NOSIG

TAF TAF LKMT
Valide du 20 à 00h jusqu'au 21 à 06h UTC


192300Z 2000/2106 03006KT 9999 BKN025
TEMPO 2001/2015 BKN012
PROB30
TEMPO 2004/2012 4000 -RA BR BKN007
TEMPO 2022/2106 4000 BR BKN009
PROB30
TEMPO 2101/2106 1200 MIFG BKN003



MET'MAP, la Météo Aéronautique d'un coup d'oeil ! - Copyright ORBIFLY Décembre 2007 - Disclaimer

ORBIFLY MET'MAP TEAM :

Programmation & Développement : Alexandra Zaïnal
Sur une idée originale de : Baudouin d'Aumeries
Assistance à la programmation : Marc-Olivier Méhu
Soutien technique & logistique : Manuel Goepfert

Contact : metmap@orbifly.com




SOURCES & CREDITS :

   NOAA